sensor_id;sensor_type;location;lat;lon;timestamp;P1;durP1;ratioP1;P2;durP2;ratioP2
6671;SDS011;3372;48.690;12.362;2024-03-23T00:53:58;10.13;;;6.45;;
6671;SDS011;3372;48.690;12.362;2024-03-23T00:56:24;7.75;;;6.25;;
6671;SDS011;3372;48.690;12.362;2024-03-23T00:58:50;8.23;;;6.45;;
6671;SDS011;3372;48.690;12.362;2024-03-23T01:01:16;7.95;;;6.18;;
6671;SDS011;3372;48.690;12.362;2024-03-23T01:03:42;8.43;;;6.95;;
6671;SDS011;3372;48.690;12.362;2024-03-23T01:06:08;9.05;;;6.18;;
6671;SDS011;3372;48.690;12.362;2024-03-23T01:08:34;7.47;;;6.18;;
6671;SDS011;3372;48.690;12.362;2024-03-23T01:11:00;8.23;;;5.47;;
6671;SDS011;3372;48.690;12.362;2024-03-23T01:13:27;6.85;;;5.75;;
6671;SDS011;3372;48.690;12.362;2024-03-23T01:15:54;8.25;;;5.85;;
6671;SDS011;3372;48.690;12.362;2024-03-23T01:18:20;7.95;;;5.72;;
6671;SDS011;3372;48.690;12.362;2024-03-23T01:20:47;8.15;;;6.22;;
6671;SDS011;3372;48.690;12.362;2024-03-23T01:23:13;6.45;;;5.15;;
6671;SDS011;3372;48.690;12.362;2024-03-23T01:25:39;7.35;;;5.10;;
6671;SDS011;3372;48.690;12.362;2024-03-23T01:28:05;9.27;;;5.00;;
6671;SDS011;3372;48.690;12.362;2024-03-23T01:30:31;6.05;;;4.45;;
6671;SDS011;3372;48.690;12.362;2024-03-23T01:32:57;10.18;;;5.13;;
6671;SDS011;3372;48.690;12.362;2024-03-23T01:35:23;6.53;;;4.95;;
6671;SDS011;3372;48.690;12.362;2024-03-23T01:37:49;7.07;;;4.45;;
6671;SDS011;3372;48.690;12.362;2024-03-23T01:40:18;6.05;;;4.63;;
6671;SDS011;3372;48.690;12.362;2024-03-23T01:42:57;9.60;;;4.32;;
6671;SDS011;3372;48.690;12.362;2024-03-23T01:45:23;6.55;;;4.65;;
6671;SDS011;3372;48.690;12.362;2024-03-23T01:47:50;6.55;;;4.45;;
6671;SDS011;3372;48.690;12.362;2024-03-23T01:50:16;6.38;;;4.15;;
6671;SDS011;3372;48.690;12.362;2024-03-23T01:52:42;4.78;;;3.85;;
6671;SDS011;3372;48.690;12.362;2024-03-23T01:55:08;6.28;;;4.15;;
6671;SDS011;3372;48.690;12.362;2024-03-23T01:57:34;7.28;;;3.78;;
6671;SDS011;3372;48.690;12.362;2024-03-23T02:00:00;6.28;;;4.38;;
6671;SDS011;3372;48.690;12.362;2024-03-23T02:02:26;7.45;;;4.45;;
6671;SDS011;3372;48.690;12.362;2024-03-23T02:04:52;8.73;;;4.63;;
6671;SDS011;3372;48.690;12.362;2024-03-23T02:07:18;5.93;;;4.65;;
6671;SDS011;3372;48.690;12.362;2024-03-23T02:09:44;6.60;;;4.28;;
6671;SDS011;3372;48.690;12.362;2024-03-23T02:12:10;6.88;;;4.45;;
6671;SDS011;3372;48.690;12.362;2024-03-23T02:14:36;6.22;;;4.40;;
6671;SDS011;3372;48.690;12.362;2024-03-23T02:17:02;6.28;;;4.25;;
6671;SDS011;3372;48.690;12.362;2024-03-23T02:19:28;5.10;;;3.92;;
6671;SDS011;3372;48.690;12.362;2024-03-23T02:21:54;8.23;;;4.47;;
6671;SDS011;3372;48.690;12.362;2024-03-23T02:24:20;6.10;;;4.10;;
6671;SDS011;3372;48.690;12.362;2024-03-23T02:26:46;7.03;;;4.40;;
6671;SDS011;3372;48.690;12.362;2024-03-23T02:29:13;4.85;;;3.55;;
6671;SDS011;3372;48.690;12.362;2024-03-23T02:31:39;5.57;;;4.10;;
6671;SDS011;3372;48.690;12.362;2024-03-23T02:34:05;6.53;;;4.47;;
6671;SDS011;3372;48.690;12.362;2024-03-23T02:36:31;5.03;;;4.20;;
6671;SDS011;3372;48.690;12.362;2024-03-23T02:38:57;5.07;;;4.00;;
6671;SDS011;3372;48.690;12.362;2024-03-23T02:41:23;5.03;;;3.60;;
6671;SDS011;3372;48.690;12.362;2024-03-23T02:43:49;6.55;;;4.07;;
6671;SDS011;3372;48.690;12.362;2024-03-23T02:46:16;6.30;;;4.25;;
6671;SDS011;3372;48.690;12.362;2024-03-23T02:48:41;6.70;;;3.92;;
6671;SDS011;3372;48.690;12.362;2024-03-23T02:51:08;5.32;;;3.55;;
6671;SDS011;3372;48.690;12.362;2024-03-23T02:53:34;5.68;;;4.15;;
6671;SDS011;3372;48.690;12.362;2024-03-23T02:56:00;5.78;;;3.67;;
6671;SDS011;3372;48.690;12.362;2024-03-23T02:58:26;6.85;;;3.70;;
6671;SDS011;3372;48.690;12.362;2024-03-23T03:00:52;6.25;;;3.67;;
6671;SDS011;3372;48.690;12.362;2024-03-23T03:03:18;6.05;;;3.90;;
6671;SDS011;3372;48.690;12.362;2024-03-23T03:05:43;4.50;;;3.75;;
6671;SDS011;3372;48.690;12.362;2024-03-23T03:08:09;5.60;;;4.25;;
6671;SDS011;3372;48.690;12.362;2024-03-23T03:10:35;6.07;;;3.72;;
6671;SDS011;3372;48.690;12.362;2024-03-23T03:13:02;5.35;;;3.55;;
6671;SDS011;3372;48.690;12.362;2024-03-23T03:15:28;5.43;;;3.55;;
6671;SDS011;3372;48.690;12.362;2024-03-23T03:17:54;4.57;;;3.63;;
6671;SDS011;3372;48.690;12.362;2024-03-23T03:20:20;6.43;;;4.07;;
6671;SDS011;3372;48.690;12.362;2024-03-23T03:22:48;6.30;;;3.80;;
6671;SDS011;3372;48.690;12.362;2024-03-23T03:25:14;7.07;;;3.55;;
6671;SDS011;3372;48.690;12.362;2024-03-23T03:27:40;5.32;;;3.63;;
6671;SDS011;3372;48.690;12.362;2024-03-23T03:30:06;9.15;;;3.95;;
6671;SDS011;3372;48.690;12.362;2024-03-23T03:32:33;5.63;;;3.38;;
6671;SDS011;3372;48.690;12.362;2024-03-23T03:34:59;10.27;;;3.53;;
6671;SDS011;3372;48.690;12.362;2024-03-23T03:37:25;5.68;;;3.70;;
6671;SDS011;3372;48.690;12.362;2024-03-23T03:39:51;4.85;;;3.63;;
6671;SDS011;3372;48.690;12.362;2024-03-23T03:42:18;6.53;;;4.25;;
6671;SDS011;3372;48.690;12.362;2024-03-23T03:44:44;5.57;;;3.22;;
6671;SDS011;3372;48.690;12.362;2024-03-23T03:47:10;5.47;;;3.47;;
6671;SDS011;3372;48.690;12.362;2024-03-23T03:49:36;4.97;;;3.33;;
6671;SDS011;3372;48.690;12.362;2024-03-23T03:52:02;4.43;;;2.95;;
6671;SDS011;3372;48.690;12.362;2024-03-23T03:54:28;5.75;;;3.60;;
6671;SDS011;3372;48.690;12.362;2024-03-23T03:56:54;6.50;;;3.33;;
6671;SDS011;3372;48.690;12.362;2024-03-23T03:59:20;5.70;;;3.58;;
6671;SDS011;3372;48.690;12.362;2024-03-23T04:01:46;4.50;;;2.90;;
6671;SDS011;3372;48.690;12.362;2024-03-23T04:04:12;6.18;;;3.10;;
6671;SDS011;3372;48.690;12.362;2024-03-23T04:06:39;5.45;;;2.78;;
6671;SDS011;3372;48.690;12.362;2024-03-23T04:09:05;5.72;;;3.38;;
6671;SDS011;3372;48.690;12.362;2024-03-23T04:11:31;6.63;;;3.30;;
6671;SDS011;3372;48.690;12.362;2024-03-23T04:13:57;4.88;;;3.47;;
6671;SDS011;3372;48.690;12.362;2024-03-23T04:16:27;5.30;;;2.92;;
6671;SDS011;3372;48.690;12.362;2024-03-23T04:18:53;4.53;;;2.72;;
6671;SDS011;3372;48.690;12.362;2024-03-23T04:21:19;5.85;;;3.28;;
6671;SDS011;3372;48.690;12.362;2024-03-23T04:23:45;5.65;;;3.03;;
6671;SDS011;3372;48.690;12.362;2024-03-23T04:26:11;4.22;;;2.33;;
6671;SDS011;3372;48.690;12.362;2024-03-23T04:28:37;4.07;;;2.67;;
6671;SDS011;3372;48.690;12.362;2024-03-23T04:31:04;5.80;;;3.45;;
6671;SDS011;3372;48.690;12.362;2024-03-23T04:35:56;3.67;;;2.67;;
6671;SDS011;3372;48.690;12.362;2024-03-23T04:38:22;5.68;;;2.78;;
6671;SDS011;3372;48.690;12.362;2024-03-23T04:40:57;7.40;;;2.58;;
6671;SDS011;3372;48.690;12.362;2024-03-23T04:43:24;5.75;;;4.20;;
6671;SDS011;3372;48.690;12.362;2024-03-23T04:45:50;5.28;;;3.78;;
6671;SDS011;3372;48.690;12.362;2024-03-23T04:48:16;3.83;;;2.63;;
6671;SDS011;3372;48.690;12.362;2024-03-23T04:50:42;4.05;;;2.83;;
6671;SDS011;3372;48.690;12.362;2024-03-23T04:53:08;4.53;;;2.85;;
6671;SDS011;3372;48.690;12.362;2024-03-23T04:55:33;4.80;;;2.65;;
6671;SDS011;3372;48.690;12.362;2024-03-23T04:57:59;4.22;;;2.97;;
6671;SDS011;3372;48.690;12.362;2024-03-23T05:00:25;4.30;;;2.50;;
6671;SDS011;3372;48.690;12.362;2024-03-23T05:02:51;4.60;;;2.70;;
6671;SDS011;3372;48.690;12.362;2024-03-23T05:05:18;4.55;;;2.30;;
6671;SDS011;3372;48.690;12.362;2024-03-23T05:07:44;3.70;;;2.22;;
6671;SDS011;3372;48.690;12.362;2024-03-23T05:10:10;3.65;;;2.45;;
6671;SDS011;3372;48.690;12.362;2024-03-23T05:12:39;3.28;;;2.13;;
6671;SDS011;3372;48.690;12.362;2024-03-23T05:15:05;4.25;;;2.60;;
6671;SDS011;3372;48.690;12.362;2024-03-23T05:17:32;3.88;;;2.30;;
6671;SDS011;3372;48.690;12.362;2024-03-23T05:19:59;3.03;;;2.10;;
6671;SDS011;3372;48.690;12.362;2024-03-23T05:22:25;3.45;;;2.00;;
6671;SDS011;3372;48.690;12.362;2024-03-23T05:24:52;8.70;;;3.30;;
6671;SDS011;3372;48.690;12.362;2024-03-23T05:27:18;5.47;;;2.70;;
6671;SDS011;3372;48.690;12.362;2024-03-23T05:29:44;4.40;;;2.40;;
6671;SDS011;3372;48.690;12.362;2024-03-23T05:32:10;6.78;;;2.95;;
6671;SDS011;3372;48.690;12.362;2024-03-23T05:34:36;5.10;;;2.60;;
6671;SDS011;3372;48.690;12.362;2024-03-23T05:37:02;5.85;;;2.88;;
6671;SDS011;3372;48.690;12.362;2024-03-23T05:39:29;5.03;;;3.15;;
6671;SDS011;3372;48.690;12.362;2024-03-23T05:41:55;4.85;;;2.58;;
6671;SDS011;3372;48.690;12.362;2024-03-23T05:44:21;4.13;;;2.10;;
6671;SDS011;3372;48.690;12.362;2024-03-23T05:46:47;3.80;;;2.10;;
6671;SDS011;3372;48.690;12.362;2024-03-23T05:49:16;2.85;;;1.92;;
6671;SDS011;3372;48.690;12.362;2024-03-23T05:54:09;7.03;;;4.55;;
6671;SDS011;3372;48.690;12.362;2024-03-23T05:56:35;4.55;;;2.83;;
6671;SDS011;3372;48.690;12.362;2024-03-23T05:59:01;6.57;;;3.75;;
6671;SDS011;3372;48.690;12.362;2024-03-23T06:01:28;4.10;;;2.80;;
6671;SDS011;3372;48.690;12.362;2024-03-23T06:03:55;6.40;;;2.97;;
6671;SDS011;3372;48.690;12.362;2024-03-23T06:06:21;4.82;;;2.83;;
6671;SDS011;3372;48.690;12.362;2024-03-23T06:08:47;6.00;;;3.13;;
6671;SDS011;3372;48.690;12.362;2024-03-23T06:11:13;7.45;;;5.53;;
6671;SDS011;3372;48.690;12.362;2024-03-23T06:13:39;4.93;;;3.55;;
6671;SDS011;3372;48.690;12.362;2024-03-23T06:16:05;9.27;;;3.80;;
6671;SDS011;3372;48.690;12.362;2024-03-23T06:18:32;8.18;;;4.72;;
6671;SDS011;3372;48.690;12.362;2024-03-23T06:20:58;6.72;;;4.15;;
6671;SDS011;3372;48.690;12.362;2024-03-23T06:23:24;8.52;;;2.85;;
6671;SDS011;3372;48.690;12.362;2024-03-23T06:25:50;4.80;;;2.67;;
6671;SDS011;3372;48.690;12.362;2024-03-23T06:28:16;5.05;;;2.90;;
6671;SDS011;3372;48.690;12.362;2024-03-23T06:30:43;5.05;;;3.05;;
6671;SDS011;3372;48.690;12.362;2024-03-23T06:33:09;9.73;;;4.00;;
6671;SDS011;3372;48.690;12.362;2024-03-23T06:35:35;10.18;;;3.83;;
6671;SDS011;3372;48.690;12.362;2024-03-23T06:38:01;7.82;;;4.25;;
6671;SDS011;3372;48.690;12.362;2024-03-23T06:40:27;6.50;;;3.72;;
6671;SDS011;3372;48.690;12.362;2024-03-23T06:42:53;13.55;;;7.00;;
6671;SDS011;3372;48.690;12.362;2024-03-23T06:45:19;8.45;;;4.30;;
6671;SDS011;3372;48.690;12.362;2024-03-23T06:47:48;9.90;;;5.78;;
6671;SDS011;3372;48.690;12.362;2024-03-23T06:50:14;10.27;;;4.03;;
6671;SDS011;3372;48.690;12.362;2024-03-23T06:52:40;5.90;;;3.30;;
6671;SDS011;3372;48.690;12.362;2024-03-23T06:55:06;3.85;;;2.22;;
6671;SDS011;3372;48.690;12.362;2024-03-23T06:57:32;4.13;;;2.42;;
6671;SDS011;3372;48.690;12.362;2024-03-23T06:59:58;4.32;;;2.25;;
6671;SDS011;3372;48.690;12.362;2024-03-23T07:02:24;4.53;;;2.90;;
6671;SDS011;3372;48.690;12.362;2024-03-23T07:04:50;4.07;;;2.75;;
6671;SDS011;3372;48.690;12.362;2024-03-23T07:07:16;3.17;;;2.28;;
6671;SDS011;3372;48.690;12.362;2024-03-23T07:09:42;10.95;;;6.45;;
6671;SDS011;3372;48.690;12.362;2024-03-23T07:12:08;13.18;;;8.27;;
6671;SDS011;3372;48.690;12.362;2024-03-23T07:14:34;8.00;;;5.28;;
6671;SDS011;3372;48.690;12.362;2024-03-23T07:17:00;11.18;;;6.05;;
6671;SDS011;3372;48.690;12.362;2024-03-23T07:19:26;7.82;;;5.15;;
6671;SDS011;3372;48.690;12.362;2024-03-23T07:21:53;5.40;;;3.05;;
6671;SDS011;3372;48.690;12.362;2024-03-23T07:24:19;5.60;;;2.63;;
6671;SDS011;3372;48.690;12.362;2024-03-23T07:26:45;5.45;;;2.53;;
6671;SDS011;3372;48.690;12.362;2024-03-23T07:29:11;6.60;;;3.42;;
6671;SDS011;3372;48.690;12.362;2024-03-23T07:31:37;3.15;;;2.00;;
6671;SDS011;3372;48.690;12.362;2024-03-23T07:34:03;4.45;;;2.47;;
6671;SDS011;3372;48.690;12.362;2024-03-23T07:36:30;4.07;;;2.17;;
6671;SDS011;3372;48.690;12.362;2024-03-23T07:38:56;3.90;;;1.98;;
6671;SDS011;3372;48.690;12.362;2024-03-23T07:41:22;3.92;;;1.75;;
6671;SDS011;3372;48.690;12.362;2024-03-23T07:43:48;4.05;;;1.88;;
6671;SDS011;3372;48.690;12.362;2024-03-23T07:48:41;3.67;;;1.80;;
6671;SDS011;3372;48.690;12.362;2024-03-23T07:51:08;4.07;;;1.77;;
6671;SDS011;3372;48.690;12.362;2024-03-23T07:53:35;6.50;;;1.90;;
6671;SDS011;3372;48.690;12.362;2024-03-23T07:56:02;3.00;;;1.52;;
6671;SDS011;3372;48.690;12.362;2024-03-23T07:58:29;5.63;;;1.52;;
6671;SDS011;3372;48.690;12.362;2024-03-23T08:00:55;4.05;;;1.50;;
6671;SDS011;3372;48.690;12.362;2024-03-23T08:03:22;10.52;;;6.38;;
6671;SDS011;3372;48.690;12.362;2024-03-23T08:05:48;3.75;;;1.90;;
6671;SDS011;3372;48.690;12.362;2024-03-23T08:08:14;6.63;;;4.88;;
6671;SDS011;3372;48.690;12.362;2024-03-23T08:10:49;7.63;;;4.32;;
6671;SDS011;3372;48.690;12.362;2024-03-23T08:13:15;7.82;;;4.82;;
6671;SDS011;3372;48.690;12.362;2024-03-23T08:15:41;4.10;;;2.67;;
6671;SDS011;3372;48.690;12.362;2024-03-23T08:18:07;7.65;;;3.90;;
6671;SDS011;3372;48.690;12.362;2024-03-23T08:20:33;4.63;;;2.67;;
6671;SDS011;3372;48.690;12.362;2024-03-23T08:22:59;4.45;;;3.33;;
6671;SDS011;3372;48.690;12.362;2024-03-23T08:25:25;7.32;;;3.70;;
6671;SDS011;3372;48.690;12.362;2024-03-23T08:27:51;5.38;;;4.07;;
6671;SDS011;3372;48.690;12.362;2024-03-23T08:30:17;6.13;;;4.00;;
6671;SDS011;3372;48.690;12.362;2024-03-23T08:32:43;6.88;;;5.22;;
6671;SDS011;3372;48.690;12.362;2024-03-23T08:35:10;5.00;;;3.55;;
6671;SDS011;3372;48.690;12.362;2024-03-23T08:37:36;4.28;;;3.30;;
6671;SDS011;3372;48.690;12.362;2024-03-23T08:40:02;3.20;;;2.33;;
6671;SDS011;3372;48.690;12.362;2024-03-23T08:42:29;3.72;;;2.65;;
6671;SDS011;3372;48.690;12.362;2024-03-23T08:44:55;4.68;;;2.58;;
6671;SDS011;3372;48.690;12.362;2024-03-23T08:47:21;2.75;;;1.58;;
6671;SDS011;3372;48.690;12.362;2024-03-23T08:49:47;3.25;;;2.20;;
6671;SDS011;3372;48.690;12.362;2024-03-23T08:52:13;4.43;;;2.20;;
6671;SDS011;3372;48.690;12.362;2024-03-23T08:54:39;3.35;;;2.17;;
6671;SDS011;3372;48.690;12.362;2024-03-23T08:57:05;4.18;;;2.78;;
6671;SDS011;3372;48.690;12.362;2024-03-23T08:59:32;4.38;;;2.72;;
6671;SDS011;3372;48.690;12.362;2024-03-23T09:01:58;4.35;;;3.08;;
6671;SDS011;3372;48.690;12.362;2024-03-23T09:04:24;5.28;;;2.78;;
6671;SDS011;3372;48.690;12.362;2024-03-23T09:06:50;4.28;;;3.33;;
6671;SDS011;3372;48.690;12.362;2024-03-23T09:09:16;6.82;;;4.45;;
6671;SDS011;3372;48.690;12.362;2024-03-23T09:11:42;6.03;;;2.95;;
6671;SDS011;3372;48.690;12.362;2024-03-23T09:14:09;6.95;;;4.75;;
6671;SDS011;3372;48.690;12.362;2024-03-23T09:16:34;9.68;;;6.55;;
6671;SDS011;3372;48.690;12.362;2024-03-23T09:19:00;6.65;;;4.55;;
6671;SDS011;3372;48.690;12.362;2024-03-23T09:21:26;6.00;;;3.00;;
6671;SDS011;3372;48.690;12.362;2024-03-23T09:23:52;5.60;;;4.68;;
6671;SDS011;3372;48.690;12.362;2024-03-23T09:26:18;5.53;;;4.38;;
6671;SDS011;3372;48.690;12.362;2024-03-23T09:28:44;5.72;;;4.10;;
6671;SDS011;3372;48.690;12.362;2024-03-23T09:31:10;6.28;;;3.50;;
6671;SDS011;3372;48.690;12.362;2024-03-23T09:33:39;5.40;;;4.10;;
6671;SDS011;3372;48.690;12.362;2024-03-23T09:36:05;7.07;;;5.18;;
6671;SDS011;3372;48.690;12.362;2024-03-23T09:38:32;5.85;;;4.32;;
6671;SDS011;3372;48.690;12.362;2024-03-23T09:40:58;4.38;;;3.45;;
6671;SDS011;3372;48.690;12.362;2024-03-23T09:43:24;5.57;;;3.67;;
6671;SDS011;3372;48.690;12.362;2024-03-23T09:45:50;4.32;;;2.90;;
6671;SDS011;3372;48.690;12.362;2024-03-23T09:48:16;4.57;;;2.58;;
6671;SDS011;3372;48.690;12.362;2024-03-23T09:50:43;5.43;;;3.63;;
6671;SDS011;3372;48.690;12.362;2024-03-23T09:53:10;4.35;;;2.65;;
6671;SDS011;3372;48.690;12.362;2024-03-23T09:55:36;4.78;;;2.92;;
6671;SDS011;3372;48.690;12.362;2024-03-23T09:58:03;4.72;;;2.80;;
6671;SDS011;3372;48.690;12.362;2024-03-23T10:00:30;4.20;;;2.83;;
6671;SDS011;3372;48.690;12.362;2024-03-23T10:02:57;4.82;;;2.55;;
6671;SDS011;3372;48.690;12.362;2024-03-23T10:05:26;5.13;;;2.60;;
6671;SDS011;3372;48.690;12.362;2024-03-23T10:07:53;5.25;;;2.78;;
6671;SDS011;3372;48.690;12.362;2024-03-23T10:10:19;4.13;;;2.58;;
6671;SDS011;3372;48.690;12.362;2024-03-23T10:12:47;4.95;;;2.95;;
6671;SDS011;3372;48.690;12.362;2024-03-23T10:15:19;4.00;;;2.67;;
6671;SDS011;3372;48.690;12.362;2024-03-23T10:17:45;4.50;;;2.85;;
6671;SDS011;3372;48.690;12.362;2024-03-23T10:20:11;4.38;;;2.60;;
6671;SDS011;3372;48.690;12.362;2024-03-23T10:22:38;4.72;;;3.22;;
6671;SDS011;3372;48.690;12.362;2024-03-23T10:25:10;3.97;;;2.30;;
6671;SDS011;3372;48.690;12.362;2024-03-23T10:27:37;2.88;;;1.90;;
6671;SDS011;3372;48.690;12.362;2024-03-23T10:30:13;3.75;;;2.25;;
6671;SDS011;3372;48.690;12.362;2024-03-23T10:35:17;2.78;;;1.55;;
6671;SDS011;3372;48.690;12.362;2024-03-23T10:37:47;2.70;;;1.63;;
6671;SDS011;3372;48.690;12.362;2024-03-23T10:40:16;3.45;;;2.08;;
6671;SDS011;3372;48.690;12.362;2024-03-23T10:42:43;3.53;;;2.03;;
6671;SDS011;3372;48.690;12.362;2024-03-23T10:45:09;2.80;;;1.58;;
6671;SDS011;3372;48.690;12.362;2024-03-23T10:47:36;2.58;;;1.70;;
6671;SDS011;3372;48.690;12.362;2024-03-23T10:52:28;2.30;;;1.48;;
6671;SDS011;3372;48.690;12.362;2024-03-23T10:54:54;2.70;;;1.65;;
6671;SDS011;3372;48.690;12.362;2024-03-23T10:57:21;1.95;;;1.17;;
6671;SDS011;3372;48.690;12.362;2024-03-23T10:59:48;2.97;;;1.70;;
6671;SDS011;3372;48.690;12.362;2024-03-23T11:02:18;2.10;;;1.20;;
6671;SDS011;3372;48.690;12.362;2024-03-23T11:04:45;2.58;;;1.25;;
6671;SDS011;3372;48.690;12.362;2024-03-23T11:09:58;1.63;;;0.88;;
6671;SDS011;3372;48.690;12.362;2024-03-23T11:12:25;1.70;;;0.88;;
6671;SDS011;3372;48.690;12.362;2024-03-23T11:17:20;1.23;;;0.60;;
6671;SDS011;3372;48.690;12.362;2024-03-23T11:20:08;1.48;;;0.43;;
6671;SDS011;3372;48.690;12.362;2024-03-23T11:25:16;1.55;;;0.65;;
6671;SDS011;3372;48.690;12.362;2024-03-23T11:27:43;2.08;;;1.23;;
6671;SDS011;3372;48.690;12.362;2024-03-23T11:30:14;2.45;;;0.60;;
6671;SDS011;3372;48.690;12.362;2024-03-23T11:32:41;1.23;;;0.70;;
6671;SDS011;3372;48.690;12.362;2024-03-23T11:35:07;2.63;;;1.13;;
6671;SDS011;3372;48.690;12.362;2024-03-23T11:37:35;1.83;;;1.02;;
6671;SDS011;3372;48.690;12.362;2024-03-23T11:40:15;1.60;;;0.98;;
6671;SDS011;3372;48.690;12.362;2024-03-23T11:42:42;3.03;;;2.00;;
6671;SDS011;3372;48.690;12.362;2024-03-23T11:45:08;3.15;;;1.55;;
6671;SDS011;3372;48.690;12.362;2024-03-23T11:47:34;2.38;;;1.35;;
6671;SDS011;3372;48.690;12.362;2024-03-23T11:50:00;2.88;;;1.05;;
6671;SDS011;3372;48.690;12.362;2024-03-23T11:52:25;3.20;;;2.40;;
6671;SDS011;3372;48.690;12.362;2024-03-23T11:54:51;2.03;;;0.98;;
6671;SDS011;3372;48.690;12.362;2024-03-23T11:57:17;1.75;;;1.05;;
6671;SDS011;3372;48.690;12.362;2024-03-23T11:59:43;1.92;;;1.17;;
6671;SDS011;3372;48.690;12.362;2024-03-23T12:02:09;3.20;;;1.20;;
6671;SDS011;3372;48.690;12.362;2024-03-23T12:04:36;1.98;;;1.30;;
6671;SDS011;3372;48.690;12.362;2024-03-23T12:09:37;1.60;;;0.80;;
6671;SDS011;3372;48.690;12.362;2024-03-23T12:12:10;2.88;;;2.05;;
6671;SDS011;3372;48.690;12.362;2024-03-23T12:14:37;4.18;;;3.17;;
6671;SDS011;3372;48.690;12.362;2024-03-23T12:17:13;8.63;;;7.65;;
6671;SDS011;3372;48.690;12.362;2024-03-23T12:19:39;3.20;;;2.90;;
6671;SDS011;3372;48.690;12.362;2024-03-23T12:24:32;4.00;;;3.42;;
6671;SDS011;3372;48.690;12.362;2024-03-23T12:27:04;2.08;;;1.42;;
6671;SDS011;3372;48.690;12.362;2024-03-23T12:29:31;1.95;;;0.90;;
6671;SDS011;3372;48.690;12.362;2024-03-23T12:32:00;2.92;;;1.95;;
6671;SDS011;3372;48.690;12.362;2024-03-23T12:34:27;1.98;;;1.20;;
6671;SDS011;3372;48.690;12.362;2024-03-23T12:36:53;1.90;;;1.10;;
6671;SDS011;3372;48.690;12.362;2024-03-23T12:39:19;3.50;;;1.77;;
6671;SDS011;3372;48.690;12.362;2024-03-23T12:41:48;2.05;;;1.60;;
6671;SDS011;3372;48.690;12.362;2024-03-23T12:44:14;2.50;;;1.83;;
6671;SDS011;3372;48.690;12.362;2024-03-23T12:46:40;2.08;;;1.23;;
6671;SDS011;3372;48.690;12.362;2024-03-23T12:49:07;2.10;;;1.20;;
6671;SDS011;3372;48.690;12.362;2024-03-23T12:51:33;2.78;;;1.88;;
6671;SDS011;3372;48.690;12.362;2024-03-23T12:53:58;2.70;;;1.83;;
6671;SDS011;3372;48.690;12.362;2024-03-23T12:56:24;2.65;;;1.83;;
6671;SDS011;3372;48.690;12.362;2024-03-23T12:58:50;2.60;;;1.90;;
6671;SDS011;3372;48.690;12.362;2024-03-23T13:01:19;3.42;;;1.98;;
6671;SDS011;3372;48.690;12.362;2024-03-23T13:03:48;2.88;;;1.60;;
6671;SDS011;3372;48.690;12.362;2024-03-23T13:06:14;3.38;;;1.77;;
6671;SDS011;3372;48.690;12.362;2024-03-23T13:08:40;3.35;;;1.40;;
6671;SDS011;3372;48.690;12.362;2024-03-23T13:11:06;2.97;;;1.50;;
6671;SDS011;3372;48.690;12.362;2024-03-23T13:13:34;3.92;;;1.20;;
6671;SDS011;3372;48.690;12.362;2024-03-23T13:15:59;3.05;;;1.67;;
6671;SDS011;3372;48.690;12.362;2024-03-23T13:18:25;3.60;;;1.67;;
6671;SDS011;3372;48.690;12.362;2024-03-23T13:20:51;2.83;;;1.67;;
6671;SDS011;3372;48.690;12.362;2024-03-23T13:23:17;3.85;;;1.58;;
6671;SDS011;3372;48.690;12.362;2024-03-23T13:25:49;2.97;;;1.60;;
6671;SDS011;3372;48.690;12.362;2024-03-23T13:28:18;3.50;;;1.23;;
6671;SDS011;3372;48.690;12.362;2024-03-23T13:30:54;2.42;;;1.52;;
6671;SDS011;3372;48.690;12.362;2024-03-23T13:33:21;3.63;;;1.98;;
6671;SDS011;3372;48.690;12.362;2024-03-23T13:35:54;3.05;;;1.35;;
6671;SDS011;3372;48.690;12.362;2024-03-23T13:38:21;2.60;;;1.42;;
6671;SDS011;3372;48.690;12.362;2024-03-23T13:40:54;2.92;;;1.83;;
6671;SDS011;3372;48.690;12.362;2024-03-23T13:43:24;4.20;;;1.83;;
6671;SDS011;3372;48.690;12.362;2024-03-23T13:45:53;3.53;;;2.03;;
6671;SDS011;3372;48.690;12.362;2024-03-23T13:48:20;5.50;;;2.08;;
6671;SDS011;3372;48.690;12.362;2024-03-23T13:53:15;3.38;;;1.80;;
6671;SDS011;3372;48.690;12.362;2024-03-23T13:55:46;4.13;;;2.03;;
6671;SDS011;3372;48.690;12.362;2024-03-23T13:58:13;3.75;;;2.08;;
6671;SDS011;3372;48.690;12.362;2024-03-23T14:00:39;3.13;;;1.58;;
6671;SDS011;3372;48.690;12.362;2024-03-23T14:03:05;8.45;;;1.73;;
6671;SDS011;3372;48.690;12.362;2024-03-23T14:05:30;2.70;;;1.40;;
6671;SDS011;3372;48.690;12.362;2024-03-23T14:07:56;5.28;;;2.13;;
6671;SDS011;3372;48.690;12.362;2024-03-23T14:10:22;3.70;;;1.65;;
6671;SDS011;3372;48.690;12.362;2024-03-23T14:12:47;6.32;;;2.60;;
6671;SDS011;3372;48.690;12.362;2024-03-23T14:15:13;4.13;;;1.73;;
6671;SDS011;3372;48.690;12.362;2024-03-23T14:17:38;4.00;;;1.83;;
6671;SDS011;3372;48.690;12.362;2024-03-23T14:20:04;6.32;;;1.83;;
6671;SDS011;3372;48.690;12.362;2024-03-23T14:22:31;4.40;;;1.58;;
6671;SDS011;3372;48.690;12.362;2024-03-23T14:24:58;2.85;;;1.60;;
6671;SDS011;3372;48.690;12.362;2024-03-23T14:27:24;5.05;;;1.80;;
6671;SDS011;3372;48.690;12.362;2024-03-23T14:29:50;2.83;;;1.60;;
6671;SDS011;3372;48.690;12.362;2024-03-23T14:32:16;5.53;;;1.98;;
6671;SDS011;3372;48.690;12.362;2024-03-23T14:34:42;4.25;;;1.83;;
6671;SDS011;3372;48.690;12.362;2024-03-23T14:37:07;4.43;;;1.88;;
6671;SDS011;3372;48.690;12.362;2024-03-23T14:39:33;3.78;;;1.77;;
6671;SDS011;3372;48.690;12.362;2024-03-23T14:42:00;2.85;;;1.67;;
6671;SDS011;3372;48.690;12.362;2024-03-23T14:46:53;2.95;;;1.52;;
6671;SDS011;3372;48.690;12.362;2024-03-23T14:49:20;5.28;;;2.10;;
6671;SDS011;3372;48.690;12.362;2024-03-23T14:51:46;6.75;;;2.17;;
6671;SDS011;3372;48.690;12.362;2024-03-23T14:54:12;4.80;;;2.20;;
6671;SDS011;3372;48.690;12.362;2024-03-23T14:56:39;4.20;;;2.22;;
6671;SDS011;3372;48.690;12.362;2024-03-23T14:59:05;4.07;;;1.95;;
6671;SDS011;3372;48.690;12.362;2024-03-23T15:01:32;6.72;;;2.53;;
6671;SDS011;3372;48.690;12.362;2024-03-23T15:03:58;3.65;;;2.08;;
6671;SDS011;3372;48.690;12.362;2024-03-23T15:06:24;5.10;;;1.83;;
6671;SDS011;3372;48.690;12.362;2024-03-23T15:08:50;7.13;;;2.67;;
6671;SDS011;3372;48.690;12.362;2024-03-23T15:11:16;5.18;;;2.13;;
6671;SDS011;3372;48.690;12.362;2024-03-23T15:13:45;2.95;;;1.95;;
6671;SDS011;3372;48.690;12.362;2024-03-23T15:16:16;6.45;;;1.95;;
6671;SDS011;3372;48.690;12.362;2024-03-23T15:18:42;5.88;;;2.03;;
6671;SDS011;3372;48.690;12.362;2024-03-23T15:21:08;3.78;;;1.55;;
6671;SDS011;3372;48.690;12.362;2024-03-23T15:23:36;4.78;;;2.10;;
6671;SDS011;3372;48.690;12.362;2024-03-23T15:26:02;3.55;;;2.03;;
6671;SDS011;3372;48.690;12.362;2024-03-23T15:28:29;4.32;;;1.55;;
6671;SDS011;3372;48.690;12.362;2024-03-23T15:31:14;3.75;;;1.60;;
6671;SDS011;3372;48.690;12.362;2024-03-23T15:33:40;4.68;;;1.73;;
6671;SDS011;3372;48.690;12.362;2024-03-23T15:36:06;7.30;;;2.13;;
6671;SDS011;3372;48.690;12.362;2024-03-23T15:38:32;6.38;;;2.03;;
6671;SDS011;3372;48.690;12.362;2024-03-23T15:40:58;7.30;;;1.92;;
6671;SDS011;3372;48.690;12.362;2024-03-23T15:43:24;3.78;;;1.70;;
6671;SDS011;3372;48.690;12.362;2024-03-23T15:45:57;3.63;;;1.40;;
6671;SDS011;3372;48.690;12.362;2024-03-23T15:48:26;2.38;;;1.23;;
6671;SDS011;3372;48.690;12.362;2024-03-23T15:50:53;4.45;;;1.27;;
6671;SDS011;3372;48.690;12.362;2024-03-23T15:53:20;3.90;;;1.67;;
6671;SDS011;3372;48.690;12.362;2024-03-23T15:55:53;4.40;;;1.67;;
6671;SDS011;3372;48.690;12.362;2024-03-23T15:58:19;4.72;;;1.13;;
6671;SDS011;3372;48.690;12.362;2024-03-23T16:00:45;4.88;;;1.60;;
6671;SDS011;3372;48.690;12.362;2024-03-23T16:03:11;3.78;;;1.30;;
6671;SDS011;3372;48.690;12.362;2024-03-23T16:05:37;3.90;;;1.20;;
6671;SDS011;3372;48.690;12.362;2024-03-23T16:08:03;5.07;;;1.58;;
6671;SDS011;3372;48.690;12.362;2024-03-23T16:10:29;6.38;;;1.40;;
6671;SDS011;3372;48.690;12.362;2024-03-23T16:12:55;3.83;;;1.30;;
6671;SDS011;3372;48.690;12.362;2024-03-23T16:15:21;4.72;;;1.13;;
6671;SDS011;3372;48.690;12.362;2024-03-23T16:17:47;3.15;;;1.05;;
6671;SDS011;3372;48.690;12.362;2024-03-23T16:20:13;3.60;;;1.23;;